Time,TemperatureF,DewpointF,PressureIn,WindDirection,WindDirectionDegrees,WindSpeedMPH,WindSpeedGustMPH,Humidity,HourlyPrecipIn,Conditions,Clouds,dailyrainin,SoftwareType,DateUTC
2013-02-10 00:03:00,25.5,17.1,29.80,ENE,68,3.0,4.3,67,0.00,,,0.00,WSDL version 420,2013-02-10 07:03:00,
2013-02-10 00:08:00,25.4,17.0,29.80,ENE,68,2.4,4.3,67,0.00,,,0.00,WSDL version 420,2013-02-10 07:08:00,
2013-02-10 00:13:00,25.0,16.6,29.80,ENE,68,2.0,4.3,67,0.00,,,0.00,WSDL version 420,2013-02-10 07:13:00,
2013-02-10 00:18:00,24.8,16.6,29.80,ENE,68,2.8,3.4,68,0.00,,,0.00,WSDL version 420,2013-02-10 07:18:00,
2013-02-10 00:23:00,24.8,16.8,29.80,ENE,68,2.5,3.4,68,0.00,,,0.00,WSDL version 420,2013-02-10 07:23:00,
2013-02-10 00:28:00,24.8,16.8,29.80,ENE,68,3.0,3.8,68,0.00,,,0.00,WSDL version 420,2013-02-10 07:28:00,
2013-02-10 00:33:00,24.6,16.5,29.80,ENE,68,2.6,3.8,68,0.00,,,0.00,WSDL version 420,2013-02-10 07:33:00,
2013-02-10 00:38:00,24.4,16.4,29.80,ENE,68,2.6,3.1,68,0.00,,,0.00,WSDL version 420,2013-02-10 07:38:00,
2013-02-10 00:43:00,24.2,15.8,29.80,ENE,68,2.2,4.3,67,0.00,,,0.00,WSDL version 420,2013-02-10 07:43:00,
2013-02-10 00:48:00,24.0,16.0,29.80,North,-999,-999.0,-999.0,68,0.00,,,0.00,WSDL version 420,2013-02-10 07:48:00,
2013-02-10 00:53:00,23.8,15.8,29.80,East,84,2.9,5.4,68,0.00,,,0.00,WSDL version 420,2013-02-10 07:53:00,
2013-02-10 00:58:00,23.5,15.1,29.80,ENE,72,3.2,5.4,67,0.00,,,0.00,WSDL version 420,2013-02-10 07:58:00,
2013-02-10 01:04:00,23.4,15.3,29.80,ENE,68,3.4,4.3,68,0.00,,,0.00,WSDL version 420,2013-02-10 08:04:00,
2013-02-10 01:09:00,23.4,15.7,29.80,East,90,2.5,4.7,69,0.00,,,0.00,WSDL version 420,2013-02-10 08:09:00,
2013-02-10 01:14:00,23.4,15.7,29.80,East,90,3.1,4.7,69,0.00,,,0.00,WSDL version 420,2013-02-10 08:14:00,
2013-02-10 01:19:00,23.4,16.0,29.80,ENE,71,3.4,4.7,70,0.00,,,0.00,WSDL version 420,2013-02-10 08:19:00,
2013-02-10 01:24:00,23.4,16.0,29.80,ENE,68,3.8,4.3,70,0.00,,,0.00,WSDL version 420,2013-02-10 08:24:00,
2013-02-10 01:29:00,23.5,16.3,29.80,ENE,68,3.7,5.6,71,0.00,,,0.00,WSDL version 420,2013-02-10 08:29:00,
2013-02-10 01:34:00,23.5,16.6,29.80,ENE,77,4.3,6.0,72,0.00,,,0.00,WSDL version 420,2013-02-10 08:34:00,
2013-02-10 01:39:00,23.5,16.5,29.80,ENE,68,3.8,6.0,71,0.00,,,0.00,WSDL version 420,2013-02-10 08:39:00,
2013-02-10 01:44:00,23.5,16.4,29.80,NE,54,3.1,4.9,71,0.00,,,0.00,WSDL version 420,2013-02-10 08:44:00,
2013-02-10 01:49:00,23.8,16.6,29.80,NE,45,1.8,3.8,71,0.00,,,0.00,WSDL version 420,2013-02-10 08:49:00,
2013-02-10 01:54:00,23.9,16.8,29.80,ENE,68,2.9,3.4,71,0.00,,,0.00,WSDL version 420,2013-02-10 08:54:00,
2013-02-10 01:59:00,23.9,16.5,29.80,ENE,68,3.1,4.0,70,0.00,,,0.00,WSDL version 420,2013-02-10 08:59:00,
2013-02-10 02:04:00,23.8,16.2,29.80,ENE,68,2.9,4.0,69,0.00,,,0.00,WSDL version 420,2013-02-10 09:04:00,
2013-02-10 02:09:00,23.6,15.7,29.80,ENE,68,3.4,4.0,68,0.00,,,0.00,WSDL version 420,2013-02-10 09:09:00,
2013-02-10 02:14:00,23.4,15.1,29.80,ENE,68,3.3,4.0,67,0.00,,,0.00,WSDL version 420,2013-02-10 09:14:00,
2013-02-10 02:19:00,23.2,14.9,29.80,ENE,68,2.9,3.8,67,0.00,,,0.00,WSDL version 420,2013-02-10 09:19:00,
2013-02-10 02:24:00,22.9,14.7,29.80,ENE,68,2.9,3.8,67,0.00,,,0.00,WSDL version 420,2013-02-10 09:24:00,
2013-02-10 02:29:00,22.7,14.4,29.80,East,79,3.0,3.8,67,0.00,,,0.00,WSDL version 420,2013-02-10 09:29:00,
2013-02-10 02:34:00,22.5,14.2,29.80,ENE,68,3.7,4.0,67,0.00,,,0.00,WSDL version 420,2013-02-10 09:34:00,
2013-02-10 02:39:00,22.4,14.1,29.80,East,84,3.4,4.9,67,0.00,,,0.00,WSDL version 420,2013-02-10 09:39:00,
2013-02-10 02:44:00,22.1,14.1,29.80,ENE,68,2.9,4.9,68,0.00,,,0.00,WSDL version 420,2013-02-10 09:44:00,
2013-02-10 02:49:00,22.1,14.1,29.80,ENE,68,3.1,4.9,68,0.00,,,0.00,WSDL version 420,2013-02-10 09:49:00,
2013-02-10 02:54:00,22.1,14.4,29.80,ENE,68,2.6,4.9,69,0.00,,,0.00,WSDL version 420,2013-02-10 09:54:00,
2013-02-10 02:59:00,22.3,14.6,29.80,ENE,68,3.1,4.0,69,0.00,,,0.00,WSDL version 420,2013-02-10 09:59:00,
2013-02-10 03:04:00,22.3,14.8,29.77,ENE,75,3.6,4.7,70,0.00,,,0.00,WSDL version 420,2013-02-10 10:04:00,
2013-02-10 03:09:00,22.5,15.2,29.77,East,90,2.9,4.7,71,0.00,,,0.00,WSDL version 420,2013-02-10 10:09:00,
2013-02-10 03:14:00,22.6,15.5,29.77,ENE,68,3.4,4.7,71,0.00,,,0.00,WSDL version 420,2013-02-10 10:14:00,
2013-02-10 03:19:00,22.8,15.7,29.77,SE,135,1.6,4.0,71,0.00,,,0.00,WSDL version 420,2013-02-10 10:19:00,
2013-02-10 03:24:00,22.9,15.8,29.77,ENE,68,3.6,4.3,71,0.00,,,0.00,WSDL version 420,2013-02-10 10:24:00,
2013-02-10 03:29:00,23.0,15.9,29.77,ENE,68,2.2,4.3,71,0.00,,,0.00,WSDL version 420,2013-02-10 10:29:00,
2013-02-10 03:34:00,23.1,15.8,29.77,South,169,2.7,3.8,70,0.00,,,0.00,WSDL version 420,2013-02-10 10:34:00,
2013-02-10 03:39:00,22.8,15.0,29.77,SE,135,2.0,3.4,68,0.00,,,0.00,WSDL version 420,2013-02-10 10:39:00,
2013-02-10 03:44:00,22.8,15.0,29.77,East,90,2.1,3.1,69,0.00,,,0.00,WSDL version 420,2013-02-10 10:44:00,
2013-02-10 03:49:00,23.0,15.5,29.77,East,90,2.7,3.6,69,0.00,,,0.00,WSDL version 420,2013-02-10 10:49:00,
2013-02-10 03:54:00,23.0,15.2,29.77,ENE,68,2.1,3.6,68,0.00,,,0.00,WSDL version 420,2013-02-10 10:54:00,
2013-02-10 03:59:00,22.8,14.7,29.77,ENE,68,3.9,4.5,67,0.00,,,0.00,WSDL version 420,2013-02-10 10:59:00,
2013-02-10 04:04:00,22.4,14.0,29.77,ENE,68,3.4,4.5,66,0.00,,,0.00,WSDL version 420,2013-02-10 11:04:00,
2013-02-10 04:09:00,22.0,13.5,29.77,ENE,68,4.3,4.9,66,0.00,,,0.00,WSDL version 420,2013-02-10 11:09:00,
2013-02-10 04:14:00,21.8,13.1,29.77,ENE,68,2.9,4.9,66,0.00,,,0.00,WSDL version 420,2013-02-10 11:14:00,
2013-02-10 04:19:00,21.7,13.4,29.77,East,90,2.2,4.0,67,0.00,,,0.00,WSDL version 420,2013-02-10 11:19:00,
2013-02-10 04:24:00,21.7,13.7,29.77,East,79,3.1,4.3,68,0.00,,,0.00,WSDL version 420,2013-02-10 11:24:00,
2013-02-10 04:29:00,21.9,14.2,29.77,East,90,3.1,4.9,70,0.00,,,0.00,WSDL version 420,2013-02-10 11:29:00,
2013-02-10 04:34:00,22.2,15.0,29.77,ESE,113,3.4,5.8,71,0.00,,,0.00,WSDL version 420,2013-02-10 11:34:00,
2013-02-10 04:39:00,22.4,15.6,29.77,ENE,68,3.3,5.8,72,0.00,,,0.00,WSDL version 420,2013-02-10 11:39:00,
2013-02-10 04:44:00,22.4,15.3,29.77,ENE,77,2.6,4.3,71,0.00,,,0.00,WSDL version 420,2013-02-10 11:44:00,
2013-02-10 04:49:00,22.5,15.4,29.77,East,98,3.1,3.8,71,0.00,,,0.00,WSDL version 420,2013-02-10 11:49:00,
2013-02-10 04:54:00,22.7,15.6,29.77,ENE,72,2.9,5.4,71,0.00,,,0.00,WSDL version 420,2013-02-10 11:54:00,
2013-02-10 04:59:00,22.7,15.3,29.77,East,79,2.2,5.4,70,0.00,,,0.00,WSDL version 420,2013-02-10 11:59:00,
2013-02-10 05:04:00,22.8,15.4,29.77,ENE,72,2.8,4.3,70,0.00,,,0.00,WSDL version 420,2013-02-10 12:04:00,
2013-02-10 05:09:00,23.1,16.0,29.77,East,90,3.1,4.0,71,0.00,,,0.00,WSDL version 420,2013-02-10 12:09:00,
2013-02-10 05:14:00,23.3,16.2,29.77,East,93,3.8,4.9,71,0.00,,,0.00,WSDL version 420,2013-02-10 12:14:00,
2013-02-10 05:19:00,23.1,15.7,29.77,East,94,3.1,6.0,70,0.00,,,0.00,WSDL version 420,2013-02-10 12:19:00,
2013-02-10 05:24:00,23.2,15.8,29.77,ENE,68,1.8,6.0,70,0.00,,,0.00,WSDL version 420,2013-02-10 12:24:00,
2013-02-10 05:29:00,23.4,16.0,29.77,ENE,72,2.5,3.6,70,0.00,,,0.00,WSDL version 420,2013-02-10 12:29:00,
2013-02-10 05:34:00,23.6,16.4,29.77,East,83,2.2,3.6,71,0.00,,,0.00,WSDL version 420,2013-02-10 12:34:00,
2013-02-10 05:39:00,24.0,16.8,29.77,East,90,3.5,4.0,71,0.00,,,0.00,WSDL version 420,2013-02-10 12:39:00,
2013-02-10 05:44:00,24.2,17.0,29.77,East,101,3.4,4.0,71,0.00,,,0.00,WSDL version 420,2013-02-10 12:44:00,
2013-02-10 05:49:00,24.3,17.2,29.77,East,90,3.1,4.5,71,0.00,,,0.00,WSDL version 420,2013-02-10 12:49:00,
2013-02-10 05:54:00,24.5,17.5,29.77,East,90,3.4,4.5,72,0.00,,,0.00,WSDL version 420,2013-02-10 12:54:00,
2013-02-10 05:59:00,24.8,17.9,29.77,East,90,2.5,4.0,71,0.00,,,0.00,WSDL version 420,2013-02-10 12:59:00,
2013-02-10 06:04:00,25.1,17.9,29.77,East,86,2.9,4.0,71,0.00,,,0.00,WSDL version 420,2013-02-10 13:04:00,
2013-02-10 06:09:00,25.3,18.1,29.77,East,90,3.6,4.0,71,0.00,,,0.00,WSDL version 420,2013-02-10 13:09:00,
2013-02-10 06:14:00,25.4,18.3,29.77,East,90,3.2,4.0,71,0.00,,,0.00,WSDL version 420,2013-02-10 13:14:00,
2013-02-10 06:19:00,25.6,18.4,29.77,East,90,2.7,3.8,71,0.00,,,0.00,WSDL version 420,2013-02-10 13:19:00,
2013-02-10 06:24:00,25.8,18.6,29.77,East,90,2.6,3.1,71,0.00,,,0.00,WSDL version 420,2013-02-10 13:24:00,
2013-02-10 06:29:00,26.1,18.9,29.77,East,90,2.2,2.9,71,0.00,,,0.00,WSDL version 420,2013-02-10 13:29:00,
2013-02-10 06:34:00,26.4,19.2,29.80,East,90,1.3,2.7,71,0.00,,,0.00,WSDL version 420,2013-02-10 13:34:00,
2013-02-10 06:39:00,26.7,19.3,29.80,East,101,2.0,2.9,70,0.00,,,0.00,WSDL version 420,2013-02-10 13:39:00,
2013-02-10 06:44:00,26.9,19.4,29.80,ESE,113,0.0,2.9,70,0.00,,,0.00,WSDL version 420,2013-02-10 13:44:00,
2013-02-10 06:49:00,27.1,19.3,29.80,ESE,113,0.4,2.0,69,0.00,,,0.00,WSDL version 420,2013-02-10 13:49:00,
2013-02-10 06:54:00,27.3,19.5,29.80,ESE,113,1.8,2.5,69,0.00,,,0.00,WSDL version 420,2013-02-10 13:54:00,
2013-02-10 06:59:00,27.5,19.6,29.80,ESE,113,2.2,2.7,68,0.00,,,0.00,WSDL version 420,2013-02-10 13:59:00,
2013-02-10 07:04:00,27.7,19.6,29.80,ESE,113,1.8,2.7,68,0.00,,,0.00,WSDL version 420,2013-02-10 14:04:00,
2013-02-10 07:09:00,27.9,19.6,29.80,SE,135,0.4,2.7,67,0.00,,,0.00,WSDL version 420,2013-02-10 14:09:00,
2013-02-10 07:14:00,27.9,19.4,29.80,East,90,2.7,2.7,67,0.00,,,0.00,WSDL version 420,2013-02-10 14:14:00,
2013-02-10 07:19:00,28.0,19.6,29.80,East,90,1.7,2.7,67,0.00,,,0.00,WSDL version 420,2013-02-10 14:19:00,
2013-02-10 07:24:00,28.1,19.6,29.80,East,90,1.9,2.7,67,0.00,,,0.00,WSDL version 420,2013-02-10 14:24:00,
2013-02-10 07:29:00,28.2,19.7,29.80,East,90,1.6,3.1,67,0.00,,,0.00,WSDL version 420,2013-02-10 14:29:00,
2013-02-10 07:34:00,28.0,19.7,29.80,East,90,2.1,3.1,68,0.00,,,0.00,WSDL version 420,2013-02-10 14:34:00,
2013-02-10 07:39:00,28.0,19.9,29.80,East,90,3.1,3.4,68,0.00,,,0.00,WSDL version 420,2013-02-10 14:39:00,
2013-02-10 07:44:00,28.2,20.1,29.80,East,90,1.6,3.4,68,0.00,,,0.00,WSDL version 420,2013-02-10 14:44:00,
2013-02-10 07:49:00,28.4,20.5,29.83,East,90,2.0,2.5,69,0.00,,,0.00,WSDL version 420,2013-02-10 14:49:00,
2013-02-10 07:54:00,28.5,20.5,29.83,East,90,1.4,2.5,68,0.00,,,0.00,WSDL version 420,2013-02-10 14:54:00,
2013-02-10 07:59:00,28.7,20.5,29.83,East,90,0.5,2.5,68,0.00,,,0.00,WSDL version 420,2013-02-10 14:59:00,
2013-02-10 08:04:00,29.0,20.8,29.83,East,90,1.5,2.2,67,0.00,,,0.00,WSDL version 420,2013-02-10 15:04:00,
2013-02-10 08:09:00,29.3,20.8,29.83,East,90,1.3,2.5,67,0.00,,,0.00,WSDL version 420,2013-02-10 15:09:00,
2013-02-10 08:14:00,29.5,20.8,29.83,East,90,1.9,2.5,66,0.00,,,0.00,WSDL version 420,2013-02-10 15:14:00,
2013-02-10 08:19:00,29.7,20.9,29.83,East,90,0.0,2.5,66,0.00,,,0.00,WSDL version 420,2013-02-10 15:19:00,
2013-02-10 08:24:00,30.0,20.9,29.83,East,90,0.7,2.0,65,0.00,,,0.00,WSDL version 420,2013-02-10 15:24:00,
2013-02-10 08:29:00,30.3,21.0,29.83,East,90,2.1,2.7,64,0.00,,,0.00,WSDL version 420,2013-02-10 15:29:00,
2013-02-10 08:34:00,30.5,20.9,29.83,ESE,113,2.9,4.0,63,0.00,,,0.00,WSDL version 420,2013-02-10 15:34:00,
2013-02-10 08:39:00,30.7,21.2,29.83,SSE,153,2.7,4.0,64,0.00,,,0.00,WSDL version 420,2013-02-10 15:39:00,
2013-02-10 08:44:00,31.2,21.6,29.83,SSE,153,3.4,4.0,64,0.00,,,0.00,WSDL version 420,2013-02-10 15:44:00,
2013-02-10 08:49:00,31.3,21.2,29.83,SSE,150,3.3,4.3,61,0.00,,,0.00,WSDL version 420,2013-02-10 15:49:00,
2013-02-10 08:54:00,31.2,20.7,29.83,SE,146,2.9,4.3,61,0.00,,,0.00,WSDL version 420,2013-02-10 15:54:00,
2013-02-10 08:59:00,31.5,20.9,29.83,SSE,163,2.9,3.8,61,0.00,,,0.00,WSDL version 420,2013-02-10 15:59:00,
2013-02-10 09:04:00,31.9,21.3,29.83,SE,146,3.7,4.3,61,0.00,,,0.00,WSDL version 420,2013-02-10 16:04:00,
2013-02-10 09:09:00,32.1,20.6,29.83,South,180,4.0,4.3,60,0.00,,,0.00,WSDL version 420,2013-02-10 16:09:00,
2013-02-10 09:14:00,32.5,20.0,29.83,SSE,158,4.5,5.8,59,0.00,,,0.00,WSDL version 420,2013-02-10 16:14:00,
2013-02-10 09:19:00,32.5,19.8,29.83,SSE,158,3.9,5.8,59,0.00,,,0.00,WSDL version 420,2013-02-10 16:19:00,
2013-02-10 09:24:00,32.5,19.7,29.83,SSE,158,5.6,6.0,58,0.00,,,0.00,WSDL version 420,2013-02-10 16:24:00,
2013-02-10 09:29:00,32.4,19.2,29.83,SSE,158,4.3,6.3,58,0.00,,,0.00,WSDL version 420,2013-02-10 16:29:00,
2013-02-10 09:34:00,32.5,19.3,29.83,South,180,5.4,6.3,58,0.00,,,0.00,WSDL version 420,2013-02-10 16:34:00,
2013-02-10 09:39:00,32.8,19.8,29.83,SSE,165,3.8,6.0,59,0.00,,,0.00,WSDL version 420,2013-02-10 16:39:00,
2013-02-10 09:44:00,33.5,20.5,29.83,South,174,4.4,5.6,58,0.00,,,0.00,WSDL version 420,2013-02-10 16:44:00,
2013-02-10 09:49:00,33.7,20.5,29.80,South,191,4.9,6.3,58,0.00,,,0.00,WSDL version 420,2013-02-10 16:49:00,
2013-02-10 09:54:00,33.8,20.6,29.80,SSE,158,3.7,6.3,58,0.00,,,0.00,WSDL version 420,2013-02-10 16:54:00,
2013-02-10 09:59:00,34.4,21.0,29.80,SSE,167,5.2,6.5,57,0.00,,,0.00,WSDL version 420,2013-02-10 16:59:00,
2013-02-10 10:04:00,34.3,20.2,29.80,South,173,4.5,7.2,56,0.00,,,0.00,WSDL version 420,2013-02-10 17:04:00,
2013-02-10 10:09:00,34.0,20.1,29.80,SSE,158,6.5,7.6,57,0.00,,,0.00,WSDL version 420,2013-02-10 17:09:00,
2013-02-10 10:14:00,34.5,20.8,29.80,South,169,5.6,7.6,57,0.00,,,0.00,WSDL version 420,2013-02-10 17:14:00,
2013-02-10 10:19:00,34.7,21.1,29.80,South,180,5.8,6.9,58,0.00,,,0.00,WSDL version 420,2013-02-10 17:19:00,
2013-02-10 10:24:00,34.9,21.9,29.80,SW,225,4.9,7.2,59,0.00,,,0.00,WSDL version 420,2013-02-10 17:24:00,
2013-02-10 10:29:00,34.9,21.6,29.80,SSE,163,4.5,7.2,58,0.00,,,0.00,WSDL version 420,2013-02-10 17:29:00,
2013-02-10 10:34:00,35.0,21.7,29.80,SSE,158,5.9,6.7,58,0.00,,,0.00,WSDL version 420,2013-02-10 17:34:00,
2013-02-10 10:39:00,35.5,22.1,29.80,SSE,165,5.3,8.1,57,0.00,,,0.00,WSDL version 420,2013-02-10 17:39:00,
2013-02-10 10:44:00,35.9,21.8,29.80,SSE,165,5.7,8.1,55,0.00,,,0.00,WSDL version 420,2013-02-10 17:44:00,
2013-02-10 10:49:00,36.4,21.9,29.80,South,171,6.0,8.1,55,0.00,,,0.00,WSDL version 420,2013-02-10 17:49:00,
2013-02-10 10:54:00,36.3,21.5,29.80,SSE,158,5.8,7.8,54,0.00,,,0.00,WSDL version 420,2013-02-10 17:54:00,
2013-02-10 10:59:00,36.1,21.0,29.80,South,173,6.5,8.7,53,0.00,,,0.00,WSDL version 420,2013-02-10 17:59:00,
2013-02-10 11:04:00,36.0,20.6,29.80,SSW,203,4.7,8.7,53,0.00,,,0.00,WSDL version 420,2013-02-10 18:04:00,
2013-02-10 11:09:00,35.8,20.5,29.80,South,180,5.1,8.1,54,0.00,,,0.00,WSDL version 420,2013-02-10 18:09:00,
2013-02-10 11:14:00,35.8,20.7,29.80,South,171,5.6,7.6,54,0.00,,,0.00,WSDL version 420,2013-02-10 18:14:00,
2013-02-10 11:19:00,35.8,20.5,29.80,South,180,5.9,9.6,54,0.00,,,0.00,WSDL version 420,2013-02-10 18:19:00,
2013-02-10 11:24:00,35.7,20.6,29.80,SSW,207,4.8,9.6,53,0.00,,,0.00,WSDL version 420,2013-02-10 18:24:00,
2013-02-10 11:29:00,35.8,20.6,29.80,South,176,6.0,9.4,53,0.00,,,0.00,WSDL version 420,2013-02-10 18:29:00,
2013-02-10 11:34:00,35.6,20.2,29.80,SE,143,6.6,9.4,53,0.00,,,0.00,WSDL version 420,2013-02-10 18:34:00,
2013-02-10 11:39:00,35.7,20.3,29.80,South,188,6.0,9.6,54,0.00,,,0.00,WSDL version 420,2013-02-10 18:39:00,
2013-02-10 11:44:00,35.6,20.7,29.80,South,180,4.9,9.6,55,0.00,,,0.00,WSDL version 420,2013-02-10 18:44:00,
2013-02-10 11:49:00,35.8,21.5,29.80,South,169,5.7,7.4,55,0.00,,,0.00,WSDL version 420,2013-02-10 18:49:00,
2013-02-10 11:54:00,36.1,21.2,29.80,South,180,5.1,8.1,55,0.00,,,0.00,WSDL version 420,2013-02-10 18:54:00,
2013-02-10 11:59:00,36.3,21.7,29.80,SSW,203,3.6,8.1,55,0.00,,,0.00,WSDL version 420,2013-02-10 18:59:00,
2013-02-10 12:04:00,36.6,22.2,29.80,South,188,5.7,8.1,56,0.00,,,0.00,WSDL version 420,2013-02-10 19:04:00,
2013-02-10 12:09:00,36.7,21.7,29.80,South,180,5.7,8.1,54,0.00,,,0.00,WSDL version 420,2013-02-10 19:09:00,
2013-02-10 12:14:00,37.0,21.4,29.80,SSE,162,5.2,7.8,53,0.00,,,0.00,WSDL version 420,2013-02-10 19:14:00,
2013-02-10 12:19:00,37.0,21.1,29.80,SSE,158,4.5,6.5,52,0.00,,,0.00,WSDL version 420,2013-02-10 19:19:00,
2013-02-10 12:24:00,37.0,21.2,29.80,SW,225,5.8,8.1,53,0.00,,,0.00,WSDL version 420,2013-02-10 19:24:00,
2013-02-10 12:29:00,37.2,21.7,29.80,SW,225,4.7,8.1,54,0.00,,,0.00,WSDL version 420,2013-02-10 19:29:00,
2013-02-10 12:34:00,37.0,21.5,29.80,SSW,208,4.5,6.5,53,0.00,,,0.00,WSDL version 420,2013-02-10 19:34:00,
2013-02-10 12:39:00,36.8,21.2,29.80,SSW,203,4.9,6.5,53,0.00,,,0.00,WSDL version 420,2013-02-10 19:39:00,
2013-02-10 12:49:00,36.9,21.2,29.77,SW,218,5.3,9.6,53,0.00,,,0.00,WSDL version 420,2013-02-10 19:49:00,
2013-02-10 12:54:00,37.0,21.8,29.77,South,188,5.8,9.6,54,0.00,,,0.00,WSDL version 420,2013-02-10 19:54:00,
2013-02-10 12:59:00,37.1,21.9,29.77,SW,219,6.5,10.5,54,0.00,,,0.00,WSDL version 420,2013-02-10 19:59:00,
2013-02-10 13:04:00,37.3,21.7,29.77,SSW,195,6.6,10.5,53,0.00,,,0.00,WSDL version 420,2013-02-10 20:04:00,
2013-02-10 13:09:00,37.5,21.9,29.77,SSW,207,5.9,9.2,53,0.00,,,0.00,WSDL version 420,2013-02-10 20:09:00,
2013-02-10 13:14:00,37.5,21.7,29.77,SSW,207,5.4,8.5,52,0.00,,,0.00,WSDL version 420,2013-02-10 20:14:00,
2013-02-10 13:19:00,37.2,21.7,29.77,SW,225,4.5,6.5,53,0.00,,,0.00,WSDL version 420,2013-02-10 20:19:00,
2013-02-10 13:24:00,37.1,21.5,29.77,SSW,210,7.4,10.5,53,0.00,,,0.00,WSDL version 420,2013-02-10 20:24:00,
2013-02-10 13:29:00,36.9,21.6,29.77,SSW,203,6.0,10.5,54,0.00,,,0.00,WSDL version 420,2013-02-10 20:29:00,
2013-02-10 13:34:00,36.8,22.1,29.77,SSW,207,6.3,8.9,55,0.00,,,0.00,WSDL version 420,2013-02-10 20:34:00,
2013-02-10 13:39:00,37.0,21.7,29.77,SW,225,7.0,8.9,53,0.00,,,0.00,WSDL version 420,2013-02-10 20:39:00,
2013-02-10 13:44:00,37.1,21.3,29.77,SW,236,9.5,12.5,52,0.00,,,0.00,WSDL version 420,2013-02-10 20:44:00,
2013-02-10 13:49:00,37.3,20.8,29.77,SW,236,8.9,12.5,51,0.00,,,0.00,WSDL version 420,2013-02-10 20:49:00,
2013-02-10 13:54:00,37.4,20.5,29.77,WSW,248,11.0,12.8,50,0.00,,,0.00,WSDL version 420,2013-02-10 20:54:00,
2013-02-10 13:59:00,37.4,20.2,29.77,WSW,248,8.9,13.6,49,0.00,,,0.00,WSDL version 420,2013-02-10 20:59:00,
2013-02-10 14:04:00,37.5,20.1,29.77,WSW,248,9.8,13.6,49,0.00,,,0.00,WSDL version 420,2013-02-10 21:04:00,
2013-02-10 14:09:00,37.4,20.0,29.77,WSW,240,11.6,13.4,49,0.00,,,0.00,WSDL version 420,2013-02-10 21:09:00,
2013-02-10 14:14:00,37.4,19.7,29.77,WSW,244,10.4,15.9,49,0.00,,,0.00,WSDL version 420,2013-02-10 21:14:00,
2013-02-10 14:19:00,37.6,20.2,29.77,SW,236,10.3,15.9,49,0.00,,,0.00,WSDL version 420,2013-02-10 21:19:00,
2013-02-10 14:24:00,37.6,19.5,29.77,WSW,242,8.2,13.4,48,0.00,,,0.00,WSDL version 420,2013-02-10 21:24:00,
2013-02-10 14:29:00,37.4,19.6,29.77,WSW,248,9.3,12.3,48,0.00,,,0.00,WSDL version 420,2013-02-10 21:29:00,
2013-02-10 14:34:00,37.4,19.5,29.77,SW,229,10.8,13.2,48,0.00,,,0.00,WSDL version 420,2013-02-10 21:34:00,
2013-02-10 14:44:00,36.9,19.4,29.77,SW,233,10.5,13.0,49,0.00,,,0.00,WSDL version 420,2013-02-10 21:44:00,
2013-02-10 14:49:00,37.4,19.9,29.74,WSW,248,10.0,13.0,48,0.00,,,0.00,WSDL version 420,2013-02-10 21:49:00,
2013-02-10 14:54:00,37.7,20.0,29.74,WSW,248,11.7,12.3,49,0.00,,,0.00,WSDL version 420,2013-02-10 21:54:00,
2013-02-10 15:04:00,37.9,19.4,29.77,WSW,255,6.7,10.7,47,0.00,,,0.00,WSDL version 420,2013-02-10 22:04:00,
2013-02-10 15:09:00,37.7,19.0,29.77,East,96,3.4,9.8,46,0.00,,,0.00,WSDL version 420,2013-02-10 22:09:00,
2013-02-10 15:19:00,37.1,18.6,29.77,SW,236,8.1,14.5,48,0.00,,,0.00,WSDL version 420,2013-02-10 22:19:00,
2013-02-10 15:24:00,36.3,20.5,29.77,SW,225,13.6,16.6,54,0.00,,,0.00,WSDL version 420,2013-02-10 22:24:00,
2013-02-10 15:29:00,35.6,21.5,29.77,SW,225,9.7,16.6,57,0.00,,,0.00,WSDL version 420,2013-02-10 22:29:00,
2013-02-10 15:39:00,35.3,22.5,29.77,SSW,210,4.2,7.8,60,0.00,,,0.00,WSDL version 420,2013-02-10 22:39:00,
2013-02-10 15:44:00,35.4,22.7,29.77,North,-999,-999.0,-999.0,59,0.00,,,0.00,WSDL version 420,2013-02-10 22:44:00,
2013-02-10 15:49:00,35.3,22.7,29.77,SW,231,5.5,7.6,60,0.00,,,0.00,WSDL version 420,2013-02-10 22:49:00,
2013-02-10 15:54:00,35.5,22.9,29.77,SW,225,5.6,7.6,60,0.00,,,0.00,WSDL version 420,2013-02-10 22:54:00,
2013-02-10 15:59:00,35.6,22.5,29.77,WSW,253,4.3,7.6,58,0.00,,,0.00,WSDL version 420,2013-02-10 22:59:00,
2013-02-10 16:04:00,35.6,22.2,29.77,WSW,248,5.3,7.6,57,0.00,,,0.00,WSDL version 420,2013-02-10 23:04:00,
2013-02-10 16:09:00,35.8,22.0,29.77,WNW,293,3.8,6.7,57,0.00,,,0.00,WSDL version 420,2013-02-10 23:09:00,
2013-02-10 16:14:00,35.8,22.0,29.77,SW,225,4.7,6.5,57,0.00,,,0.00,WSDL version 420,2013-02-10 23:14:00,
2013-02-10 16:19:00,35.7,21.8,29.77,WSW,248,4.4,6.5,56,0.00,,,0.00,WSDL version 420,2013-02-10 23:19:00,
2013-02-10 16:24:00,35.6,21.6,29.77,SW,218,12.3,17.4,57,0.00,,,0.00,WSDL version 420,2013-02-10 23:24:00,
2013-02-10 16:29:00,35.0,22.0,29.77,SW,214,10.1,17.4,59,0.00,,,0.00,WSDL version 420,2013-02-10 23:29:00,
2013-02-10 16:34:00,34.5,22.3,29.77,SW,233,7.6,13.2,61,0.00,,,0.00,WSDL version 420,2013-02-10 23:34:00,
2013-02-10 16:39:00,34.3,22.6,29.77,SW,236,5.4,10.7,62,0.00,,,0.00,WSDL version 420,2013-02-10 23:39:00,
2013-02-10 16:44:00,34.3,22.3,29.77,WSW,243,5.8,9.8,61,0.00,,,0.00,WSDL version 420,2013-02-10 23:44:00,
2013-02-10 16:49:00,34.3,22.3,29.77,WSW,248,4.9,6.7,61,0.00,,,0.00,WSDL version 420,2013-02-10 23:49:00,
2013-02-10 16:54:00,34.4,22.4,29.77,WSW,243,4.8,8.5,61,0.00,,,0.00,WSDL version 420,2013-02-10 23:54:00,
2013-02-10 16:59:00,34.4,21.9,29.77,NNE,23,3.7,8.5,59,0.00,,,0.00,WSDL version 420,2013-02-10 23:59:00,
2013-02-10 17:04:00,34.2,21.9,29.77,NW,320,2.6,8.1,62,0.00,,,0.00,WSDL version 420,2013-02-11 00:04:00,
2013-02-10 17:09:00,33.7,22.9,29.77,NNW,332,3.1,4.7,66,0.00,,,0.00,WSDL version 420,2013-02-11 00:09:00,
2013-02-10 17:14:00,33.1,23.9,29.77,NNW,345,1.6,4.3,69,0.00,,,0.00,WSDL version 420,2013-02-11 00:14:00,
2013-02-10 17:19:00,32.8,24.0,29.80,NW,323,4.4,5.6,71,0.00,,,0.00,WSDL version 420,2013-02-11 00:19:00,
2013-02-10 17:24:00,32.1,25.0,29.80,NNW,338,4.1,5.6,74,0.00,,,0.00,WSDL version 420,2013-02-11 00:24:00,
2013-02-10 17:29:00,31.7,25.5,29.80,North,-999,-999.0,-999.0,76,0.00,,,0.00,WSDL version 420,2013-02-11 00:29:00,
2013-02-10 17:34:00,31.3,25.5,29.80,NE,34,3.8,6.5,78,0.00,,,0.00,WSDL version 420,2013-02-11 00:34:00,
2013-02-10 17:39:00,30.9,25.6,29.80,NNW,338,3.8,7.2,79,0.00,,,0.00,WSDL version 420,2013-02-11 00:39:00,
2013-02-10 17:44:00,30.5,25.6,29.80,NNW,338,5.4,7.2,81,0.00,,,0.00,WSDL version 420,2013-02-11 00:44:00,
2013-02-10 17:49:00,30.1,26.0,29.80,NNW,338,4.1,6.5,83,0.00,,,0.00,WSDL version 420,2013-02-11 00:49:00,
2013-02-10 17:54:00,29.9,26.1,29.80,NNW,338,3.9,9.8,84,0.00,,,0.00,WSDL version 420,2013-02-11 00:54:00,
2013-02-10 17:59:00,29.6,26.2,29.80,NNW,338,5.8,9.8,87,0.00,,,0.00,WSDL version 420,2013-02-11 00:59:00,
2013-02-10 18:04:00,29.5,26.4,29.80,North,6,4.4,6.5,87,0.00,,,0.00,WSDL version 420,2013-02-11 01:04:00,
2013-02-10 18:09:00,29.4,26.3,29.80,NNW,338,3.6,6.5,87,0.00,,,0.00,WSDL version 420,2013-02-11 01:09:00,
2013-02-10 18:14:00,29.3,26.2,29.80,NNW,338,3.4,5.4,87,0.00,,,0.00,WSDL version 420,2013-02-11 01:14:00,
2013-02-10 18:19:00,29.2,26.1,29.80,NNW,338,2.7,4.3,87,0.00,,,0.00,WSDL version 420,2013-02-11 01:19:00,
2013-02-10 18:24:00,29.1,26.0,29.80,NNW,338,4.7,4.7,87,0.00,,,0.00,WSDL version 420,2013-02-11 01:24:00,
2013-02-10 18:29:00,29.0,26.2,29.80,NNW,338,2.9,4.3,88,0.00,,,0.00,WSDL version 420,2013-02-11 01:29:00,
2013-02-10 18:34:00,29.1,26.3,29.80,North,360,1.3,3.1,88,0.00,,,0.00,WSDL version 420,2013-02-11 01:34:00,
2013-02-10 18:39:00,29.0,26.2,29.80,North,360,2.7,3.1,88,0.00,,,0.00,WSDL version 420,2013-02-11 01:39:00,
2013-02-10 18:44:00,28.9,26.1,29.80,North,349,2.3,3.1,88,0.00,,,0.00,WSDL version 420,2013-02-11 01:44:00,
2013-02-10 18:49:00,28.9,26.1,29.83,NNW,338,2.5,3.1,88,0.00,,,0.00,WSDL version 420,2013-02-11 01:49:00,
2013-02-10 18:54:00,28.9,26.1,29.83,North,11,2.5,3.6,88,0.00,,,0.00,WSDL version 420,2013-02-11 01:54:00,
2013-02-10 18:59:00,28.9,26.1,29.83,North,0,0.0,4.9,88,0.00,,,0.00,WSDL version 420,2013-02-11 01:59:00,
2013-02-10 19:04:00,28.9,26.1,29.83,NNW,338,1.6,4.9,88,0.00,,,0.00,WSDL version 420,2013-02-11 02:04:00,
2013-02-10 19:09:00,28.9,26.1,29.83,North,11,2.9,3.6,88,0.00,,,0.00,WSDL version 420,2013-02-11 02:09:00,
2013-02-10 19:14:00,28.9,26.1,29.83,NNE,23,3.1,3.6,88,0.00,,,0.00,WSDL version 420,2013-02-11 02:14:00,
2013-02-10 19:19:00,28.9,26.1,29.80,North,360,3.8,4.3,88,0.00,,,0.00,WSDL version 420,2013-02-11 02:19:00,
2013-02-10 19:24:00,28.9,26.1,29.80,North,0,0.0,4.9,88,0.00,,,0.00,WSDL version 420,2013-02-11 02:24:00,
2013-02-10 19:29:00,28.9,26.1,29.80,North,360,2.9,4.9,88,0.00,,,0.00,WSDL version 420,2013-02-11 02:29:00,
2013-02-10 19:34:00,28.9,26.1,29.80,North,353,2.4,3.1,88,0.00,,,0.00,WSDL version 420,2013-02-11 02:34:00,
2013-02-10 19:39:00,28.9,25.9,29.80,North,11,2.5,3.1,87,0.00,,,0.00,WSDL version 420,2013-02-11 02:39:00,
2013-02-10 19:44:00,28.8,25.6,29.80,NNE,23,1.6,3.1,86,0.00,,,0.00,WSDL version 420,2013-02-11 02:44:00,
2013-02-10 19:49:00,28.8,25.4,29.80,NNE,23,1.3,2.5,86,0.00,,,0.00,WSDL version 420,2013-02-11 02:49:00,
2013-02-10 19:54:00,28.8,25.1,29.80,NNE,23,2.5,2.5,84,0.00,,,0.00,WSDL version 420,2013-02-11 02:54:00,
2013-02-10 19:59:00,28.8,25.0,29.80,NNE,17,3.1,3.6,83,0.00,,,0.00,WSDL version 420,2013-02-11 02:59:00,
2013-02-10 20:09:00,28.8,24.7,29.80,NNE,23,2.2,2.9,82,0.00,,,0.00,WSDL version 420,2013-02-11 03:09:00,
2013-02-10 20:14:00,28.9,24.7,29.80,NNE,23,2.7,3.1,82,0.00,,,0.00,WSDL version 420,2013-02-11 03:14:00,
2013-02-10 20:19:00,28.9,24.5,29.83,North,349,3.2,3.6,81,0.00,,,0.00,WSDL version 420,2013-02-11 03:19:00,
2013-02-10 20:24:00,28.9,24.1,29.83,North,8,2.7,3.6,80,0.00,,,0.00,WSDL version 420,2013-02-11 03:24:00,
2013-02-10 20:29:00,28.9,24.2,29.83,NNE,18,2.6,3.4,80,0.00,,,0.00,WSDL version 420,2013-02-11 03:29:00,
2013-02-10 20:34:00,28.9,24.2,29.80,NE,45,1.4,2.9,80,0.00,,,0.00,WSDL version 420,2013-02-11 03:34:00,
2013-02-10 20:39:00,28.9,23.9,29.80,NE,56,1.3,2.9,79,0.00,,,0.00,WSDL version 420,2013-02-11 03:39:00,
2013-02-10 20:44:00,29.1,24.1,29.80,ENE,68,1.6,2.9,79,0.00,,,0.00,WSDL version 420,2013-02-11 03:44:00,
2013-02-10 20:49:00,29.2,24.1,29.80,ENE,68,1.8,3.1,78,0.00,,,0.00,WSDL version 420,2013-02-11 03:49:00,
2013-02-10 20:54:00,29.1,23.8,29.80,ENE,68,1.9,3.1,78,0.00,,,0.00,WSDL version 420,2013-02-11 03:54:00,
2013-02-10 20:59:00,29.1,23.7,29.80,ENE,68,1.1,2.9,77,0.00,,,0.00,WSDL version 420,2013-02-11 03:59:00,
2013-02-10 21:04:00,28.9,23.2,29.80,ENE,68,1.3,2.0,76,0.00,,,0.00,WSDL version 420,2013-02-11 04:04:00,
2013-02-10 21:09:00,28.7,22.8,29.80,ENE,68,1.5,2.5,76,0.00,,,0.00,WSDL version 420,2013-02-11 04:09:00,
2013-02-10 21:14:00,28.5,22.6,29.80,ENE,68,1.6,2.7,76,0.00,,,0.00,WSDL version 420,2013-02-11 04:14:00,
2013-02-10 21:19:00,28.3,22.1,29.83,ENE,68,1.9,2.7,75,0.00,,,0.00,WSDL version 420,2013-02-11 04:19:00,
2013-02-10 21:24:00,28.0,21.9,29.83,ENE,68,2.1,2.7,75,0.00,,,0.00,WSDL version 420,2013-02-11 04:24:00,
2013-02-10 21:29:00,28.0,21.9,29.83,East,90,2.5,2.7,75,0.00,,,0.00,WSDL version 420,2013-02-11 04:29:00,
2013-02-10 21:34:00,27.6,21.1,29.80,East,90,1.1,2.7,73,0.00,,,0.00,WSDL version 420,2013-02-11 04:34:00,
2013-02-10 21:39:00,27.1,20.3,29.80,East,90,2.1,2.9,72,0.00,,,0.00,WSDL version 420,2013-02-11 04:39:00,
2013-02-10 21:44:00,26.8,19.9,29.80,East,90,1.7,2.9,72,0.00,,,0.00,WSDL version 420,2013-02-11 04:44:00,
2013-02-10 21:49:00,26.6,20.0,29.83,East,90,2.3,2.7,73,0.00,,,0.00,WSDL version 420,2013-02-11 04:49:00,
2013-02-10 21:54:00,26.4,19.6,29.83,ENE,68,2.5,3.1,72,0.00,,,0.00,WSDL version 420,2013-02-11 04:54:00,
2013-02-10 21:59:00,26.1,19.2,29.83,ENE,68,1.3,3.1,72,0.00,,,0.00,WSDL version 420,2013-02-11 04:59:00,
2013-02-10 22:04:00,25.8,18.5,29.80,ENE,68,2.2,2.7,71,0.00,,,0.00,WSDL version 420,2013-02-11 05:04:00,
2013-02-10 22:09:00,25.2,17.7,29.80,ENE,68,3.6,4.7,69,0.00,,,0.00,WSDL version 420,2013-02-11 05:09:00,
2013-02-10 22:14:00,24.7,17.0,29.80,ENE,68,3.6,4.7,69,0.00,,,0.00,WSDL version 420,2013-02-11 05:14:00,
2013-02-10 22:19:00,24.4,16.7,29.80,ENE,68,2.6,4.3,69,0.00,,,0.00,WSDL version 420,2013-02-11 05:19:00,
2013-02-10 22:24:00,24.2,16.5,29.80,ENE,68,2.2,3.6,69,0.00,,,0.00,WSDL version 420,2013-02-11 05:24:00,
2013-02-10 22:29:00,24.0,16.3,29.80,ENE,68,2.0,2.7,69,0.00,,,0.00,WSDL version 420,2013-02-11 05:29:00,
2013-02-10 22:34:00,23.9,16.3,29.80,ENE,68,1.5,2.7,70,0.00,,,0.00,WSDL version 420,2013-02-11 05:34:00,
2013-02-10 22:39:00,23.9,16.5,29.80,ENE,68,1.6,2.2,70,0.00,,,0.00,WSDL version 420,2013-02-11 05:39:00,
2013-02-10 22:44:00,23.9,16.4,29.80,ENE,68,2.3,2.7,70,0.00,,,0.00,WSDL version 420,2013-02-11 05:44:00,
2013-02-10 22:49:00,23.9,16.6,29.80,ENE,68,1.3,2.7,71,0.00,,,0.00,WSDL version 420,2013-02-11 05:49:00,
2013-02-10 22:54:00,23.9,16.7,29.80,ENE,68,0.6,2.5,71,0.00,,,0.00,WSDL version 420,2013-02-11 05:54:00,
2013-02-10 22:59:00,23.6,16.2,29.80,East,90,2.2,2.5,69,0.00,,,0.00,WSDL version 420,2013-02-11 05:59:00,
2013-02-10 23:04:00,23.4,15.9,29.80,East,90,1.1,2.5,70,0.00,,,0.00,WSDL version 420,2013-02-11 06:04:00,
2013-02-10 23:09:00,23.6,16.4,29.80,East,90,0.0,2.2,71,0.00,,,0.00,WSDL version 420,2013-02-11 06:09:00,
2013-02-10 23:14:00,23.7,16.7,29.80,East,90,2.5,2.7,71,0.00,,,0.00,WSDL version 420,2013-02-11 06:14:00,
2013-02-10 23:19:00,23.4,16.0,29.80,East,90,0.7,2.9,70,0.00,,,0.00,WSDL version 420,2013-02-11 06:19:00,
2013-02-10 23:24:00,23.4,16.3,29.80,ESE,113,2.2,4.0,71,0.00,,,0.00,WSDL version 420,2013-02-11 06:24:00,
2013-02-10 23:29:00,22.9,15.8,29.80,North,0,0.0,4.0,71,0.00,,,0.00,WSDL version 420,2013-02-11 06:29:00,
2013-02-10 23:34:00,22.7,15.7,29.80,ESE,113,3.4,4.0,72,0.00,,,0.00,WSDL version 420,2013-02-11 06:34:00,
2013-02-10 23:39:00,22.6,16.2,29.80,East,90,3.5,4.0,75,0.00,,,0.00,WSDL version 420,2013-02-11 06:39:00,
2013-02-10 23:44:00,22.7,17.0,29.80,East,90,2.9,4.0,77,0.00,,,0.00,WSDL version 420,2013-02-11 06:44:00,
2013-02-10 23:49:00,22.6,17.2,29.80,East,96,3.5,3.8,77,0.00,,,0.00,WSDL version 420,2013-02-11 06:49:00,
2013-02-10 23:54:00,22.7,17.2,29.80,East,90,2.7,3.8,77,0.00,,,0.00,WSDL version 420,2013-02-11 06:54:00,
2013-02-10 23:59:00,22.9,17.8,29.80,East,90,2.2,3.8,79,0.00,,,0.00,WSDL version 420,2013-02-11 06:59:00,